sensor_id;sensor_type;location;lat;lon;timestamp;P1;durP1;ratioP1;P2;durP2;ratioP2
23543;SDS011;11950;51.230;4.012;2023-02-15T00:01:12;67.63;;;37.55;;
23543;SDS011;11950;51.230;4.012;2023-02-15T00:03:38;72.10;;;39.53;;
23543;SDS011;11950;51.230;4.012;2023-02-15T00:06:04;64.80;;;38.28;;
23543;SDS011;11950;51.230;4.012;2023-02-15T00:08:31;72.22;;;39.10;;
23543;SDS011;11950;51.230;4.012;2023-02-15T00:11:08;71.18;;;38.58;;
23543;SDS011;11950;51.230;4.012;2023-02-15T00:13:36;65.55;;;37.88;;
23543;SDS011;11950;51.230;4.012;2023-02-15T00:16:05;67.85;;;36.58;;
23543;SDS011;11950;51.230;4.012;2023-02-15T00:18:33;62.60;;;36.75;;
23543;SDS011;11950;51.230;4.012;2023-02-15T00:21:06;67.88;;;38.45;;
23543;SDS011;11950;51.230;4.012;2023-02-15T00:23:35;67.28;;;37.72;;
23543;SDS011;11950;51.230;4.012;2023-02-15T00:28:35;60.97;;;35.63;;
23543;SDS011;11950;51.230;4.012;2023-02-15T00:31:09;63.25;;;36.15;;
23543;SDS011;11950;51.230;4.012;2023-02-15T00:33:37;63.97;;;35.33;;
23543;SDS011;11950;51.230;4.012;2023-02-15T00:36:05;68.72;;;37.35;;
23543;SDS011;11950;51.230;4.012;2023-02-15T00:38:34;65.13;;;37.20;;
23543;SDS011;11950;51.230;4.012;2023-02-15T00:41:02;71.45;;;40.10;;
23543;SDS011;11950;51.230;4.012;2023-02-15T00:43:30;67.82;;;40.25;;
23543;SDS011;11950;51.230;4.012;2023-02-15T00:45:58;74.43;;;41.85;;
23543;SDS011;11950;51.230;4.012;2023-02-15T00:48:25;71.18;;;40.03;;
23543;SDS011;11950;51.230;4.012;2023-02-15T00:50:52;69.30;;;40.72;;
23543;SDS011;11950;51.230;4.012;2023-02-15T00:55:51;84.38;;;46.83;;
23543;SDS011;11950;51.230;4.012;2023-02-15T00:58:18;81.03;;;42.95;;
23543;SDS011;11950;51.230;4.012;2023-02-15T01:00:45;75.70;;;43.90;;
23543;SDS011;11950;51.230;4.012;2023-02-15T01:03:14;80.63;;;45.00;;
23543;SDS011;11950;51.230;4.012;2023-02-15T01:05:42;69.35;;;40.75;;
23543;SDS011;11950;51.230;4.012;2023-02-15T01:08:08;70.18;;;40.17;;
23543;SDS011;11950;51.230;4.012;2023-02-15T01:10:37;67.60;;;40.45;;
23543;SDS011;11950;51.230;4.012;2023-02-15T01:13:04;72.60;;;41.70;;
23543;SDS011;11950;51.230;4.012;2023-02-15T01:15:30;87.18;;;46.17;;
23543;SDS011;11950;51.230;4.012;2023-02-15T01:17:58;83.90;;;45.85;;
23543;SDS011;11950;51.230;4.012;2023-02-15T01:20:26;83.47;;;46.13;;
23543;SDS011;11950;51.230;4.012;2023-02-15T01:22:55;77.88;;;45.10;;
23543;SDS011;11950;51.230;4.012;2023-02-15T01:25:24;80.22;;;42.72;;
23543;SDS011;11950;51.230;4.012;2023-02-15T01:27:51;78.85;;;43.65;;
23543;SDS011;11950;51.230;4.012;2023-02-15T01:30:17;65.78;;;38.95;;
23543;SDS011;11950;51.230;4.012;2023-02-15T01:32:44;73.65;;;41.80;;
23543;SDS011;11950;51.230;4.012;2023-02-15T01:35:10;70.50;;;39.83;;
23543;SDS011;11950;51.230;4.012;2023-02-15T01:37:37;60.42;;;35.35;;
23543;SDS011;11950;51.230;4.012;2023-02-15T01:40:04;61.22;;;34.97;;
23543;SDS011;11950;51.230;4.012;2023-02-15T01:42:33;60.72;;;37.00;;
23543;SDS011;11950;51.230;4.012;2023-02-15T01:45:02;75.90;;;39.85;;
23543;SDS011;11950;51.230;4.012;2023-02-15T01:50:14;70.20;;;38.35;;
23543;SDS011;11950;51.230;4.012;2023-02-15T01:55:41;73.25;;;38.70;;
23543;SDS011;11950;51.230;4.012;2023-02-15T01:58:14;70.60;;;38.65;;
23543;SDS011;11950;51.230;4.012;2023-02-15T02:00:41;69.25;;;39.53;;
23543;SDS011;11950;51.230;4.012;2023-02-15T02:03:08;66.85;;;36.85;;
23543;SDS011;11950;51.230;4.012;2023-02-15T02:05:35;59.08;;;36.35;;
23543;SDS011;11950;51.230;4.012;2023-02-15T02:08:03;58.17;;;33.53;;
23543;SDS011;11950;51.230;4.012;2023-02-15T02:10:30;68.05;;;38.35;;
23543;SDS011;11950;51.230;4.012;2023-02-15T02:13:01;67.13;;;38.78;;
23543;SDS011;11950;51.230;4.012;2023-02-15T02:15:37;73.75;;;42.50;;
23543;SDS011;11950;51.230;4.012;2023-02-15T02:26:35;87.03;;;47.45;;
23543;SDS011;11950;51.230;4.012;2023-02-15T02:35:21;81.15;;;45.17;;
23543;SDS011;11950;51.230;4.012;2023-02-15T02:41:13;83.53;;;46.85;;
23543;SDS011;11950;51.230;4.012;2023-02-15T02:43:54;78.72;;;43.65;;
23543;SDS011;11950;51.230;4.012;2023-02-15T02:46:30;74.60;;;42.13;;
23543;SDS011;11950;51.230;4.012;2023-02-15T02:49:05;78.63;;;43.05;;
23543;SDS011;11950;51.230;4.012;2023-02-15T02:51:31;81.93;;;44.42;;
23543;SDS011;11950;51.230;4.012;2023-02-15T02:53:59;84.45;;;47.50;;
23543;SDS011;11950;51.230;4.012;2023-02-15T02:56:33;91.20;;;52.72;;
23543;SDS011;11950;51.230;4.012;2023-02-15T03:01:41;100.45;;;54.67;;
23543;SDS011;11950;51.230;4.012;2023-02-15T03:04:13;99.47;;;55.00;;
23543;SDS011;11950;51.230;4.012;2023-02-15T03:06:52;108.63;;;60.20;;
23543;SDS011;11950;51.230;4.012;2023-02-15T03:09:25;109.70;;;60.25;;
23543;SDS011;11950;51.230;4.012;2023-02-15T03:12:22;106.25;;;57.80;;
23543;SDS011;11950;51.230;4.012;2023-02-15T03:14:53;105.05;;;57.70;;
23543;SDS011;11950;51.230;4.012;2023-02-15T03:17:26;98.93;;;54.83;;
23543;SDS011;11950;51.230;4.012;2023-02-15T03:19:57;100.07;;;56.33;;
23543;SDS011;11950;51.230;4.012;2023-02-15T03:22:31;95.20;;;54.67;;
23543;SDS011;11950;51.230;4.012;2023-02-15T03:25:04;91.18;;;51.95;;
23543;SDS011;11950;51.230;4.012;2023-02-15T03:27:40;88.32;;;51.22;;
23543;SDS011;11950;51.230;4.012;2023-02-15T03:30:11;94.03;;;52.67;;
23543;SDS011;11950;51.230;4.012;2023-02-15T03:32:40;96.07;;;53.72;;
23543;SDS011;11950;51.230;4.012;2023-02-15T03:35:09;95.65;;;53.05;;
23543;SDS011;11950;51.230;4.012;2023-02-15T03:37:40;90.30;;;51.78;;
23543;SDS011;11950;51.230;4.012;2023-02-15T03:40:17;91.63;;;50.83;;
23543;SDS011;11950;51.230;4.012;2023-02-15T03:46:00;85.65;;;47.75;;
23543;SDS011;11950;51.230;4.012;2023-02-15T03:48:53;82.68;;;45.55;;
23543;SDS011;11950;51.230;4.012;2023-02-15T03:51:24;82.57;;;47.05;;
23543;SDS011;11950;51.230;4.012;2023-02-15T03:54:06;85.53;;;46.45;;
23543;SDS011;11950;51.230;4.012;2023-02-15T03:56:39;81.10;;;45.65;;
23543;SDS011;11950;51.230;4.012;2023-02-15T03:59:07;84.15;;;45.90;;
23543;SDS011;11950;51.230;4.012;2023-02-15T04:02:03;78.82;;;45.60;;
23543;SDS011;11950;51.230;4.012;2023-02-15T04:04:41;75.82;;;43.40;;
23543;SDS011;11950;51.230;4.012;2023-02-15T04:07:10;75.90;;;44.87;;
23543;SDS011;11950;51.230;4.012;2023-02-15T04:09:37;72.97;;;43.22;;
23543;SDS011;11950;51.230;4.012;2023-02-15T04:12:22;74.28;;;42.67;;
23543;SDS011;11950;51.230;4.012;2023-02-15T04:14:49;70.05;;;40.78;;
23543;SDS011;11950;51.230;4.012;2023-02-15T04:17:35;75.75;;;43.55;;
23543;SDS011;11950;51.230;4.012;2023-02-15T04:20:02;68.07;;;39.95;;
23543;SDS011;11950;51.230;4.012;2023-02-15T04:22:47;77.97;;;42.88;;
23543;SDS011;11950;51.230;4.012;2023-02-15T04:25:32;70.80;;;41.85;;
23543;SDS011;11950;51.230;4.012;2023-02-15T04:27:58;84.28;;;44.33;;
23543;SDS011;11950;51.230;4.012;2023-02-15T04:30:25;75.93;;;43.65;;
23543;SDS011;11950;51.230;4.012;2023-02-15T04:32:53;78.45;;;43.90;;
23543;SDS011;11950;51.230;4.012;2023-02-15T04:35:20;77.57;;;43.10;;
23543;SDS011;11950;51.230;4.012;2023-02-15T04:37:47;68.90;;;41.30;;
23543;SDS011;11950;51.230;4.012;2023-02-15T04:40:14;65.97;;;38.03;;
23543;SDS011;11950;51.230;4.012;2023-02-15T04:42:41;63.13;;;37.40;;
23543;SDS011;11950;51.230;4.012;2023-02-15T04:45:08;61.38;;;37.47;;
23543;SDS011;11950;51.230;4.012;2023-02-15T04:47:35;64.32;;;38.47;;
23543;SDS011;11950;51.230;4.012;2023-02-15T04:50:01;65.72;;;38.85;;
23543;SDS011;11950;51.230;4.012;2023-02-15T04:52:28;73.75;;;40.92;;
23543;SDS011;11950;51.230;4.012;2023-02-15T04:54:54;76.55;;;41.35;;
23543;SDS011;11950;51.230;4.012;2023-02-15T04:57:21;67.65;;;39.35;;
23543;SDS011;11950;51.230;4.012;2023-02-15T04:59:47;65.38;;;40.10;;
23543;SDS011;11950;51.230;4.012;2023-02-15T05:02:13;74.20;;;42.22;;
23543;SDS011;11950;51.230;4.012;2023-02-15T05:04:40;69.75;;;40.85;;
23543;SDS011;11950;51.230;4.012;2023-02-15T05:07:06;70.07;;;40.10;;
23543;SDS011;11950;51.230;4.012;2023-02-15T05:09:32;68.93;;;40.17;;
23543;SDS011;11950;51.230;4.012;2023-02-15T05:11:59;68.05;;;39.30;;
23543;SDS011;11950;51.230;4.012;2023-02-15T05:14:25;70.70;;;40.13;;
23543;SDS011;11950;51.230;4.012;2023-02-15T05:16:51;64.03;;;37.92;;
23543;SDS011;11950;51.230;4.012;2023-02-15T05:19:19;68.38;;;39.38;;
23543;SDS011;11950;51.230;4.012;2023-02-15T05:21:45;64.70;;;37.38;;
23543;SDS011;11950;51.230;4.012;2023-02-15T05:24:12;63.95;;;37.55;;
23543;SDS011;11950;51.230;4.012;2023-02-15T05:26:57;70.43;;;39.78;;
23543;SDS011;11950;51.230;4.012;2023-02-15T05:29:42;62.45;;;37.60;;
23543;SDS011;11950;51.230;4.012;2023-02-15T05:32:08;65.53;;;38.53;;
23543;SDS011;11950;51.230;4.012;2023-02-15T05:34:36;74.65;;;42.00;;
23543;SDS011;11950;51.230;4.012;2023-02-15T05:37:02;73.72;;;40.20;;
23543;SDS011;11950;51.230;4.012;2023-02-15T05:39:28;70.93;;;40.60;;
23543;SDS011;11950;51.230;4.012;2023-02-15T05:41:57;70.80;;;40.95;;
23543;SDS011;11950;51.230;4.012;2023-02-15T05:44:25;71.82;;;39.03;;
23543;SDS011;11950;51.230;4.012;2023-02-15T05:46:51;70.78;;;39.75;;
23543;SDS011;11950;51.230;4.012;2023-02-15T05:49:17;62.58;;;36.80;;
23543;SDS011;11950;51.230;4.012;2023-02-15T05:51:44;68.15;;;37.33;;
23543;SDS011;11950;51.230;4.012;2023-02-15T05:54:10;62.65;;;36.83;;
23543;SDS011;11950;51.230;4.012;2023-02-15T05:56:37;71.80;;;37.10;;
23543;SDS011;11950;51.230;4.012;2023-02-15T05:59:03;61.72;;;34.67;;
23543;SDS011;11950;51.230;4.012;2023-02-15T06:01:29;57.53;;;34.97;;
23543;SDS011;11950;51.230;4.012;2023-02-15T06:03:55;58.17;;;33.70;;
23543;SDS011;11950;51.230;4.012;2023-02-15T06:06:22;57.33;;;34.25;;
23543;SDS011;11950;51.230;4.012;2023-02-15T06:08:48;59.25;;;35.58;;
23543;SDS011;11950;51.230;4.012;2023-02-15T06:11:14;57.85;;;35.63;;
23543;SDS011;11950;51.230;4.012;2023-02-15T06:13:41;59.50;;;35.75;;
23543;SDS011;11950;51.230;4.012;2023-02-15T06:16:07;59.40;;;36.63;;
23543;SDS011;11950;51.230;4.012;2023-02-15T06:18:34;64.03;;;38.72;;
23543;SDS011;11950;51.230;4.012;2023-02-15T06:21:00;66.18;;;37.85;;
23543;SDS011;11950;51.230;4.012;2023-02-15T06:23:26;65.97;;;38.47;;
23543;SDS011;11950;51.230;4.012;2023-02-15T06:25:53;68.28;;;37.08;;
23543;SDS011;11950;51.230;4.012;2023-02-15T06:28:19;67.95;;;38.13;;
23543;SDS011;11950;51.230;4.012;2023-02-15T06:30:46;67.47;;;38.25;;
23543;SDS011;11950;51.230;4.012;2023-02-15T06:33:12;64.75;;;38.03;;
23543;SDS011;11950;51.230;4.012;2023-02-15T06:35:38;60.63;;;36.00;;
23543;SDS011;11950;51.230;4.012;2023-02-15T06:38:05;57.95;;;36.60;;
23543;SDS011;11950;51.230;4.012;2023-02-15T06:40:31;55.90;;;33.75;;
23543;SDS011;11950;51.230;4.012;2023-02-15T06:42:57;58.28;;;36.15;;
23543;SDS011;11950;51.230;4.012;2023-02-15T06:45:23;62.35;;;34.75;;
23543;SDS011;11950;51.230;4.012;2023-02-15T06:47:50;55.17;;;35.03;;
23543;SDS011;11950;51.230;4.012;2023-02-15T06:50:16;64.45;;;37.70;;
23543;SDS011;11950;51.230;4.012;2023-02-15T06:52:43;62.70;;;37.08;;
23543;SDS011;11950;51.230;4.012;2023-02-15T06:55:09;74.93;;;40.40;;
23543;SDS011;11950;51.230;4.012;2023-02-15T06:57:35;73.75;;;40.28;;
23543;SDS011;11950;51.230;4.012;2023-02-15T07:00:02;68.35;;;37.53;;
23543;SDS011;11950;51.230;4.012;2023-02-15T07:02:30;73.28;;;41.42;;
23543;SDS011;11950;51.230;4.012;2023-02-15T07:04:56;69.22;;;39.75;;
23543;SDS011;11950;51.230;4.012;2023-02-15T07:07:23;63.97;;;37.47;;
23543;SDS011;11950;51.230;4.012;2023-02-15T07:09:49;68.57;;;38.70;;
23543;SDS011;11950;51.230;4.012;2023-02-15T07:12:15;66.13;;;39.13;;
23543;SDS011;11950;51.230;4.012;2023-02-15T07:15:00;66.75;;;36.60;;
23543;SDS011;11950;51.230;4.012;2023-02-15T07:17:27;65.03;;;38.08;;
23543;SDS011;11950;51.230;4.012;2023-02-15T07:19:54;63.95;;;37.05;;
23543;SDS011;11950;51.230;4.012;2023-02-15T07:22:20;62.35;;;36.42;;
23543;SDS011;11950;51.230;4.012;2023-02-15T07:24:47;64.10;;;37.63;;
23543;SDS011;11950;51.230;4.012;2023-02-15T07:27:14;66.50;;;37.63;;
23543;SDS011;11950;51.230;4.012;2023-02-15T07:29:41;69.70;;;36.80;;
23543;SDS011;11950;51.230;4.012;2023-02-15T07:32:07;70.88;;;38.13;;
23543;SDS011;11950;51.230;4.012;2023-02-15T07:34:33;64.50;;;37.38;;
23543;SDS011;11950;51.230;4.012;2023-02-15T07:37:00;66.47;;;38.10;;
23543;SDS011;11950;51.230;4.012;2023-02-15T07:39:26;64.85;;;38.22;;
23543;SDS011;11950;51.230;4.012;2023-02-15T07:41:52;69.00;;;39.20;;
23543;SDS011;11950;51.230;4.012;2023-02-15T07:44:19;62.53;;;37.13;;
23543;SDS011;11950;51.230;4.012;2023-02-15T07:46:45;67.07;;;38.13;;
23543;SDS011;11950;51.230;4.012;2023-02-15T07:49:11;69.10;;;39.35;;
23543;SDS011;11950;51.230;4.012;2023-02-15T07:51:38;66.10;;;37.83;;
23543;SDS011;11950;51.230;4.012;2023-02-15T07:54:06;64.75;;;37.65;;
23543;SDS011;11950;51.230;4.012;2023-02-15T07:56:33;67.57;;;38.72;;
23543;SDS011;11950;51.230;4.012;2023-02-15T07:58:59;65.85;;;37.63;;
23543;SDS011;11950;51.230;4.012;2023-02-15T08:01:35;68.93;;;37.80;;
23543;SDS011;11950;51.230;4.012;2023-02-15T08:04:03;66.90;;;38.20;;
23543;SDS011;11950;51.230;4.012;2023-02-15T08:06:32;66.25;;;37.80;;
23543;SDS011;11950;51.230;4.012;2023-02-15T08:09:02;63.25;;;36.92;;
23543;SDS011;11950;51.230;4.012;2023-02-15T08:11:30;63.20;;;37.78;;
23543;SDS011;11950;51.230;4.012;2023-02-15T08:14:05;67.78;;;38.25;;
23543;SDS011;11950;51.230;4.012;2023-02-15T08:16:43;64.43;;;36.92;;
23543;SDS011;11950;51.230;4.012;2023-02-15T08:19:15;69.50;;;39.03;;
23543;SDS011;11950;51.230;4.012;2023-02-15T08:21:44;67.97;;;38.72;;
23543;SDS011;11950;51.230;4.012;2023-02-15T08:24:15;65.13;;;37.97;;
23543;SDS011;11950;51.230;4.012;2023-02-15T08:26:44;65.95;;;37.47;;
23543;SDS011;11950;51.230;4.012;2023-02-15T08:29:12;64.05;;;38.40;;
23543;SDS011;11950;51.230;4.012;2023-02-15T08:31:40;64.15;;;39.15;;
23543;SDS011;11950;51.230;4.012;2023-02-15T08:34:10;67.93;;;39.05;;
23543;SDS011;11950;51.230;4.012;2023-02-15T08:36:39;69.25;;;40.10;;
23543;SDS011;11950;51.230;4.012;2023-02-15T08:39:06;66.65;;;39.92;;
23543;SDS011;11950;51.230;4.012;2023-02-15T08:41:34;73.30;;;39.65;;
23543;SDS011;11950;51.230;4.012;2023-02-15T08:44:06;67.10;;;39.35;;
23543;SDS011;11950;51.230;4.012;2023-02-15T08:46:38;71.65;;;40.30;;
23543;SDS011;11950;51.230;4.012;2023-02-15T08:49:05;71.38;;;38.80;;
23543;SDS011;11950;51.230;4.012;2023-02-15T08:51:33;69.65;;;39.63;;
23543;SDS011;11950;51.230;4.012;2023-02-15T08:54:05;70.82;;;40.38;;
23543;SDS011;11950;51.230;4.012;2023-02-15T08:56:35;72.35;;;40.88;;
23543;SDS011;11950;51.230;4.012;2023-02-15T08:59:03;69.65;;;40.10;;
23543;SDS011;11950;51.230;4.012;2023-02-15T09:01:31;73.55;;;42.67;;
23543;SDS011;11950;51.230;4.012;2023-02-15T09:04:00;69.43;;;40.63;;
23543;SDS011;11950;51.230;4.012;2023-02-15T09:06:27;71.38;;;40.40;;
23543;SDS011;11950;51.230;4.012;2023-02-15T09:08:54;71.72;;;41.60;;
23543;SDS011;11950;51.230;4.012;2023-02-15T09:11:22;75.18;;;42.33;;
23543;SDS011;11950;51.230;4.012;2023-02-15T09:13:55;74.20;;;41.47;;
23543;SDS011;11950;51.230;4.012;2023-02-15T09:16:27;72.80;;;40.22;;
23543;SDS011;11950;51.230;4.012;2023-02-15T09:18:55;71.10;;;43.00;;
23543;SDS011;11950;51.230;4.012;2023-02-15T09:21:25;75.43;;;42.78;;
23543;SDS011;11950;51.230;4.012;2023-02-15T09:23:55;70.63;;;41.72;;
23543;SDS011;11950;51.230;4.012;2023-02-15T09:26:23;73.00;;;42.03;;
23543;SDS011;11950;51.230;4.012;2023-02-15T09:28:54;73.38;;;42.53;;
23543;SDS011;11950;51.230;4.012;2023-02-15T09:31:22;69.40;;;41.45;;
23543;SDS011;11950;51.230;4.012;2023-02-15T09:33:54;72.72;;;41.67;;
23543;SDS011;11950;51.230;4.012;2023-02-15T09:36:25;76.82;;;43.55;;
23543;SDS011;11950;51.230;4.012;2023-02-15T09:39:08;73.22;;;41.45;;
23543;SDS011;11950;51.230;4.012;2023-02-15T10:01:01;69.82;;;39.47;;
23543;SDS011;11950;51.230;4.012;2023-02-15T10:03:42;67.95;;;38.92;;
23543;SDS011;11950;51.230;4.012;2023-02-15T10:17:36;73.32;;;42.58;;
23543;SDS011;11950;51.230;4.012;2023-02-15T10:25:46;122.57;;;65.68;;
23543;SDS011;11950;51.230;4.012;2023-02-15T10:28:45;136.00;;;69.50;;
23543;SDS011;11950;51.230;4.012;2023-02-15T10:33:46;88.60;;;49.38;;
23543;SDS011;11950;51.230;4.012;2023-02-15T10:41:37;71.47;;;42.15;;
23543;SDS011;11950;51.230;4.012;2023-02-15T10:58:24;60.72;;;38.00;;
23543;SDS011;11950;51.230;4.012;2023-02-15T11:04:04;62.50;;;36.75;;
23543;SDS011;11950;51.230;4.012;2023-02-15T11:06:34;59.65;;;36.40;;
23543;SDS011;11950;51.230;4.012;2023-02-15T11:09:12;56.80;;;36.85;;
23543;SDS011;11950;51.230;4.012;2023-02-15T11:11:44;59.63;;;36.30;;
23543;SDS011;11950;51.230;4.012;2023-02-15T11:14:27;61.13;;;35.50;;
23543;SDS011;11950;51.230;4.012;2023-02-15T11:17:01;59.40;;;34.55;;
23543;SDS011;11950;51.230;4.012;2023-02-15T11:19:42;56.45;;;35.60;;
23543;SDS011;11950;51.230;4.012;2023-02-15T11:22:12;58.13;;;35.75;;
23543;SDS011;11950;51.230;4.012;2023-02-15T11:24:41;56.72;;;35.70;;
23543;SDS011;11950;51.230;4.012;2023-02-15T11:27:16;57.87;;;35.70;;
23543;SDS011;11950;51.230;4.012;2023-02-15T11:30:02;65.63;;;35.90;;
23543;SDS011;11950;51.230;4.012;2023-02-15T11:32:40;59.83;;;34.20;;
23543;SDS011;11950;51.230;4.012;2023-02-15T11:37:49;55.88;;;34.28;;
23543;SDS011;11950;51.230;4.012;2023-02-15T11:40:21;55.42;;;33.50;;
23543;SDS011;11950;51.230;4.012;2023-02-15T11:42:52;55.97;;;33.55;;
23543;SDS011;11950;51.230;4.012;2023-02-15T11:45:31;51.03;;;31.75;;
23543;SDS011;11950;51.230;4.012;2023-02-15T11:48:00;58.03;;;33.88;;
23543;SDS011;11950;51.230;4.012;2023-02-15T11:50:33;59.80;;;34.85;;
23543;SDS011;11950;51.230;4.012;2023-02-15T11:53:01;59.03;;;34.03;;
23543;SDS011;11950;51.230;4.012;2023-02-15T11:55:44;59.20;;;32.73;;
23543;SDS011;11950;51.230;4.012;2023-02-15T11:58:27;55.30;;;33.40;;
23543;SDS011;11950;51.230;4.012;2023-02-15T12:01:07;56.17;;;33.10;;
23543;SDS011;11950;51.230;4.012;2023-02-15T12:03:48;54.25;;;32.85;;
23543;SDS011;11950;51.230;4.012;2023-02-15T12:08:52;53.63;;;32.88;;
23543;SDS011;11950;51.230;4.012;2023-02-15T12:11:31;51.35;;;31.42;;
23543;SDS011;11950;51.230;4.012;2023-02-15T12:14:02;52.90;;;32.10;;
23543;SDS011;11950;51.230;4.012;2023-02-15T12:16:34;48.15;;;30.88;;
23543;SDS011;11950;51.230;4.012;2023-02-15T12:19:27;50.83;;;31.65;;
23543;SDS011;11950;51.230;4.012;2023-02-15T12:22:01;50.97;;;31.85;;
23543;SDS011;11950;51.230;4.012;2023-02-15T12:24:34;48.92;;;32.42;;
23543;SDS011;11950;51.230;4.012;2023-02-15T12:30:04;49.30;;;30.58;;
23543;SDS011;11950;51.230;4.012;2023-02-15T12:32:34;48.53;;;31.00;;
23543;SDS011;11950;51.230;4.012;2023-02-15T12:35:14;52.83;;;29.20;;
23543;SDS011;11950;51.230;4.012;2023-02-15T12:40:37;50.33;;;31.15;;
23543;SDS011;11950;51.230;4.012;2023-02-15T12:43:04;47.75;;;28.77;;
23543;SDS011;11950;51.230;4.012;2023-02-15T12:45:35;49.58;;;30.80;;
23543;SDS011;11950;51.230;4.012;2023-02-15T12:50:39;50.22;;;30.65;;
23543;SDS011;11950;51.230;4.012;2023-02-15T12:55:40;48.92;;;30.63;;
23543;SDS011;11950;51.230;4.012;2023-02-15T12:58:26;48.05;;;28.70;;
23543;SDS011;11950;51.230;4.012;2023-02-15T13:03:28;48.40;;;30.48;;
23543;SDS011;11950;51.230;4.012;2023-02-15T13:05:55;47.63;;;30.77;;
23543;SDS011;11950;51.230;4.012;2023-02-15T13:11:10;48.60;;;31.27;;
23543;SDS011;11950;51.230;4.012;2023-02-15T13:13:57;51.33;;;30.45;;
23543;SDS011;11950;51.230;4.012;2023-02-15T13:16:41;47.08;;;30.38;;
23543;SDS011;11950;51.230;4.012;2023-02-15T13:19:17;51.13;;;30.58;;
23543;SDS011;11950;51.230;4.012;2023-02-15T13:21:50;47.15;;;30.23;;
23543;SDS011;11950;51.230;4.012;2023-02-15T13:24:20;50.45;;;30.17;;
23543;SDS011;11950;51.230;4.012;2023-02-15T13:27:10;52.42;;;31.17;;
23543;SDS011;11950;51.230;4.012;2023-02-15T13:29:48;50.90;;;30.33;;
23543;SDS011;11950;51.230;4.012;2023-02-15T13:32:22;51.72;;;30.65;;
23543;SDS011;11950;51.230;4.012;2023-02-15T13:34:55;49.63;;;30.13;;
23543;SDS011;11950;51.230;4.012;2023-02-15T13:43:05;47.15;;;29.67;;
23543;SDS011;11950;51.230;4.012;2023-02-15T13:45:57;50.35;;;30.70;;
23543;SDS011;11950;51.230;4.012;2023-02-15T13:57:05;51.28;;;28.88;;
23543;SDS011;11950;51.230;4.012;2023-02-15T14:05:32;49.28;;;29.50;;
23543;SDS011;11950;51.230;4.012;2023-02-15T14:08:20;49.67;;;29.17;;
23543;SDS011;11950;51.230;4.012;2023-02-15T14:14:11;48.50;;;29.77;;
23543;SDS011;11950;51.230;4.012;2023-02-15T14:19:54;47.45;;;28.45;;
23543;SDS011;11950;51.230;4.012;2023-02-15T14:22:45;48.53;;;29.25;;
23543;SDS011;11950;51.230;4.012;2023-02-15T14:25:25;46.65;;;28.55;;
23543;SDS011;11950;51.230;4.012;2023-02-15T14:27:59;47.00;;;28.27;;
23543;SDS011;11950;51.230;4.012;2023-02-15T14:30:30;45.30;;;27.45;;
23543;SDS011;11950;51.230;4.012;2023-02-15T14:35:34;41.13;;;26.52;;
23543;SDS011;11950;51.230;4.012;2023-02-15T14:40:44;41.28;;;25.77;;
23543;SDS011;11950;51.230;4.012;2023-02-15T14:59:50;43.60;;;28.23;;
23543;SDS011;11950;51.230;4.012;2023-02-15T15:02:16;46.97;;;28.75;;
23543;SDS011;11950;51.230;4.012;2023-02-15T15:07:43;52.63;;;29.55;;
23543;SDS011;11950;51.230;4.012;2023-02-15T15:10:33;53.53;;;29.95;;
23543;SDS011;11950;51.230;4.012;2023-02-15T15:15:56;45.47;;;29.02;;
23543;SDS011;11950;51.230;4.012;2023-02-15T15:18:43;53.05;;;30.13;;
23543;SDS011;11950;51.230;4.012;2023-02-15T15:21:10;49.85;;;29.02;;
23543;SDS011;11950;51.230;4.012;2023-02-15T15:23:40;53.70;;;29.63;;
23543;SDS011;11950;51.230;4.012;2023-02-15T15:26:20;45.53;;;28.17;;
23543;SDS011;11950;51.230;4.012;2023-02-15T15:42:20;46.83;;;28.52;;
23543;SDS011;11950;51.230;4.012;2023-02-15T15:51:05;46.42;;;29.83;;
23543;SDS011;11950;51.230;4.012;2023-02-15T15:53:40;46.92;;;29.67;;
23543;SDS011;11950;51.230;4.012;2023-02-15T15:56:34;49.88;;;30.17;;
23543;SDS011;11950;51.230;4.012;2023-02-15T15:59:19;51.17;;;30.55;;
23543;SDS011;11950;51.230;4.012;2023-02-15T16:04:43;47.08;;;28.98;;
23543;SDS011;11950;51.230;4.012;2023-02-15T16:07:39;45.65;;;28.70;;
23543;SDS011;11950;51.230;4.012;2023-02-15T16:10:32;49.53;;;29.70;;
23543;SDS011;11950;51.230;4.012;2023-02-15T16:13:01;50.70;;;30.50;;
23543;SDS011;11950;51.230;4.012;2023-02-15T16:18:14;51.28;;;30.02;;
23543;SDS011;11950;51.230;4.012;2023-02-15T16:20:48;46.65;;;30.05;;
23543;SDS011;11950;51.230;4.012;2023-02-15T16:23:37;50.70;;;30.20;;
23543;SDS011;11950;51.230;4.012;2023-02-15T16:26:32;51.08;;;30.48;;
23543;SDS011;11950;51.230;4.012;2023-02-15T16:29:38;49.03;;;30.23;;
23543;SDS011;11950;51.230;4.012;2023-02-15T16:34:56;51.22;;;31.13;;
23543;SDS011;11950;51.230;4.012;2023-02-15T16:37:26;48.05;;;30.33;;
23543;SDS011;11950;51.230;4.012;2023-02-15T16:39:56;46.92;;;29.00;;
23543;SDS011;11950;51.230;4.012;2023-02-15T16:42:23;50.92;;;29.55;;
23543;SDS011;11950;51.230;4.012;2023-02-15T16:45:36;53.00;;;30.90;;
23543;SDS011;11950;51.230;4.012;2023-02-15T16:47:43;53.63;;;31.45;;
23543;SDS011;11950;51.230;4.012;2023-02-15T16:50:19;47.05;;;30.08;;
23543;SDS011;11950;51.230;4.012;2023-02-15T16:52:49;51.28;;;30.65;;
23543;SDS011;11950;51.230;4.012;2023-02-15T16:55:21;47.65;;;31.02;;
23543;SDS011;11950;51.230;4.012;2023-02-15T16:57:50;49.88;;;30.40;;
23543;SDS011;11950;51.230;4.012;2023-02-15T17:00:21;47.20;;;29.25;;
23543;SDS011;11950;51.230;4.012;2023-02-15T17:02:55;48.90;;;29.95;;
23543;SDS011;11950;51.230;4.012;2023-02-15T17:05:47;48.47;;;31.15;;
23543;SDS011;11950;51.230;4.012;2023-02-15T17:08:33;53.03;;;31.95;;
23543;SDS011;11950;51.230;4.012;2023-02-15T17:11:17;49.03;;;30.17;;
23543;SDS011;11950;51.230;4.012;2023-02-15T17:16:34;54.15;;;33.47;;
23543;SDS011;11950;51.230;4.012;2023-02-15T17:19:15;56.28;;;33.20;;
23543;SDS011;11950;51.230;4.012;2023-02-15T17:21:50;54.67;;;33.60;;
23543;SDS011;11950;51.230;4.012;2023-02-15T17:27:00;55.92;;;32.55;;
23543;SDS011;11950;51.230;4.012;2023-02-15T17:29:50;52.83;;;32.60;;
23543;SDS011;11950;51.230;4.012;2023-02-15T17:32:21;58.65;;;33.22;;
23543;SDS011;11950;51.230;4.012;2023-02-15T17:37:25;55.35;;;32.70;;
23543;SDS011;11950;51.230;4.012;2023-02-15T17:39:54;53.45;;;32.60;;
23543;SDS011;11950;51.230;4.012;2023-02-15T17:42:22;55.88;;;32.33;;
23543;SDS011;11950;51.230;4.012;2023-02-15T17:44:49;51.22;;;33.28;;
23543;SDS011;11950;51.230;4.012;2023-02-15T17:47:17;53.25;;;32.75;;
23543;SDS011;11950;51.230;4.012;2023-02-15T17:49:47;55.47;;;33.83;;
23543;SDS011;11950;51.230;4.012;2023-02-15T17:52:15;55.90;;;33.40;;
23543;SDS011;11950;51.230;4.012;2023-02-15T17:54:43;59.42;;;33.92;;
23543;SDS011;11950;51.230;4.012;2023-02-15T17:57:28;55.28;;;34.28;;
23543;SDS011;11950;51.230;4.012;2023-02-15T17:59:56;58.60;;;34.10;;
23543;SDS011;11950;51.230;4.012;2023-02-15T18:02:41;58.45;;;34.03;;
23543;SDS011;11950;51.230;4.012;2023-02-15T18:05:26;55.80;;;34.25;;
23543;SDS011;11950;51.230;4.012;2023-02-15T18:08:12;51.70;;;34.28;;
23543;SDS011;11950;51.230;4.012;2023-02-15T18:10:59;56.35;;;36.05;;
23543;SDS011;11950;51.230;4.012;2023-02-15T18:13:44;64.03;;;38.63;;
23543;SDS011;11950;51.230;4.012;2023-02-15T18:16:15;56.25;;;34.72;;